createdAt,value
2018-03-21T00:00:48.843Z,30.83
2018-03-21T00:03:15.032Z,28.20
2018-03-21T00:05:41.127Z,28.12
2018-03-21T00:08:07.183Z,27.60
2018-03-21T00:10:33.389Z,22.90
2018-03-21T00:12:59.431Z,22.67
2018-03-21T00:15:25.582Z,24.92
2018-03-21T00:17:51.836Z,22.23
2018-03-21T00:20:18.756Z,24.23
2018-03-21T00:22:44.864Z,21.45
2018-03-21T00:25:11.099Z,26.15
2018-03-21T00:27:37.263Z,25.55
2018-03-21T00:30:03.418Z,22.20
2018-03-21T00:32:30.204Z,26.55
2018-03-21T00:34:56.280Z,26.00
2018-03-21T00:37:22.361Z,28.17
2018-03-21T00:39:48.476Z,26.27
2018-03-21T00:42:14.710Z,25.77
2018-03-21T00:44:41.646Z,28.55
2018-03-21T00:47:07.788Z,23.52
2018-03-21T00:49:33.913Z,21.17
2018-03-21T00:52:00.741Z,25.60
2018-03-21T00:54:27.598Z,30.60
2018-03-21T00:56:54.417Z,25.98
2018-03-21T00:59:20.526Z,24.67
2018-03-21T01:01:46.627Z,24.17
2018-03-21T01:04:12.813Z,29.40
2018-03-21T01:06:38.994Z,21.75
2018-03-21T01:09:05.122Z,25.30
2018-03-21T01:11:31.599Z,26.23
2018-03-21T01:13:57.728Z,33.45
2018-03-21T01:16:23.846Z,22.73
2018-03-21T01:18:50.780Z,30.40
2018-03-21T01:21:16.907Z,27.00
2018-03-21T01:23:43.260Z,24.25
2018-03-21T01:26:09.386Z,28.70
2018-03-21T01:28:35.507Z,26.17
2018-03-21T01:31:01.624Z,23.08
2018-03-21T01:33:27.799Z,26.40
2018-03-21T01:35:54.107Z,28.38
2018-03-21T01:38:20.203Z,24.50
2018-03-21T01:40:47.091Z,25.95
2018-03-21T01:43:13.336Z,30.33
2018-03-21T01:45:39.474Z,28.10
2018-03-21T01:48:05.520Z,24.73
2018-03-21T01:50:31.622Z,24.27
2018-03-21T01:53:03.756Z,24.63
2018-03-21T01:55:30.889Z,28.58
2018-03-21T01:57:57.050Z,25.88
2018-03-21T02:00:23.854Z,26.33
2018-03-21T02:02:50.043Z,27.55
2018-03-21T02:05:16.217Z,28.10
2018-03-21T02:07:42.345Z,28.83
2018-03-21T02:10:08.501Z,27.40
2018-03-21T02:12:34.580Z,27.20
2018-03-21T02:15:00.640Z,28.42
2018-03-21T02:17:26.681Z,27.42
2018-03-21T02:19:53.184Z,28.10
2018-03-21T02:22:19.252Z,25.23
2018-03-21T02:24:45.495Z,29.87
2018-03-21T02:27:11.629Z,28.10
2018-03-21T02:29:37.830Z,26.62
2018-03-21T02:32:03.862Z,26.27
2018-03-21T02:34:29.939Z,25.12
2018-03-21T02:36:56.837Z,27.60
2018-03-21T02:39:22.962Z,28.15
2018-03-21T02:41:49.182Z,26.60
2018-03-21T02:44:15.334Z,21.75
2018-03-21T02:46:41.495Z,20.90
2018-03-21T02:49:07.685Z,20.67
2018-03-21T02:51:33.763Z,15.40
2018-03-21T02:54:00.140Z,20.08
2018-03-21T02:56:26.705Z,20.92
2018-03-21T02:58:52.921Z,21.00
2018-03-21T03:01:19.045Z,23.98
2018-03-21T03:03:45.080Z,27.85
2018-03-21T03:06:11.222Z,24.17
2018-03-21T03:08:37.307Z,24.83
2018-03-21T03:11:03.474Z,22.45
2018-03-21T03:13:29.688Z,25.92
2018-03-21T03:15:55.729Z,25.12
2018-03-21T03:18:21.807Z,26.00
2018-03-21T03:20:47.968Z,26.75
2018-03-21T03:23:14.811Z,27.55
2018-03-21T03:25:41.042Z,27.90
2018-03-21T03:28:07.165Z,27.10
2018-03-21T03:30:33.211Z,25.45
2018-03-21T03:32:59.370Z,30.45
2018-03-21T03:35:25.442Z,27.37
2018-03-21T03:37:52.225Z,25.02
2018-03-21T03:40:19.047Z,23.17
2018-03-21T03:42:45.115Z,21.27
2018-03-21T03:45:11.171Z,17.73
2018-03-21T03:47:37.298Z,17.33
2018-03-21T03:50:03.372Z,16.50
2018-03-21T03:52:29.443Z,15.40
2018-03-21T03:54:55.893Z,12.45
2018-03-21T03:57:22.400Z,15.95
2018-03-21T03:59:49.262Z,15.32
2018-03-21T04:02:16.110Z,15.18
2018-03-21T04:04:42.856Z,13.27
2018-03-21T04:07:09.784Z,15.60
2018-03-21T04:09:35.975Z,13.38
2018-03-21T04:12:02.249Z,13.07
2018-03-21T04:14:28.376Z,12.15
2018-03-21T04:16:54.448Z,17.08
2018-03-21T04:19:20.514Z,10.80
2018-03-21T04:21:46.584Z,11.50
2018-03-21T04:24:13.642Z,10.75
2018-03-21T04:26:41.058Z,11.35
2018-03-21T04:29:07.139Z,10.73
2018-03-21T04:31:34.010Z,11.30
2018-03-21T04:34:00.150Z,16.87
2018-03-21T04:36:26.207Z,11.88
2018-03-21T04:38:53.051Z,10.48
2018-03-21T04:41:19.229Z,12.77
2018-03-21T04:43:46.166Z,8.88
2018-03-21T04:46:13.009Z,13.73
2018-03-21T04:48:39.540Z,14.68
2018-03-21T04:51:05.670Z,14.90
2018-03-21T04:53:31.795Z,9.85
2018-03-21T04:55:57.900Z,12.23
2018-03-21T04:58:23.991Z,13.55
2018-03-21T05:00:50.831Z,9.68
2018-03-21T05:03:17.995Z,12.15
2018-03-21T05:05:45.295Z,13.68
2018-03-21T05:08:11.331Z,13.93
2018-03-21T05:10:37.745Z,15.00
2018-03-21T05:13:03.905Z,13.52
2018-03-21T05:15:30.426Z,14.90
2018-03-21T05:17:56.454Z,17.02
2018-03-21T05:20:22.596Z,15.82
2018-03-21T05:22:48.829Z,16.85
2018-03-21T05:25:16.233Z,17.25
2018-03-21T05:27:42.685Z,16.17
2018-03-21T05:30:08.805Z,23.27
2018-03-21T05:32:35.298Z,20.70
2018-03-21T05:35:01.520Z,15.15
2018-03-21T05:37:27.716Z,20.17
2018-03-21T05:39:54.577Z,18.45
2018-03-21T05:42:20.743Z,18.62
2018-03-21T05:44:47.991Z,15.70
2018-03-21T05:47:14.140Z,21.02
2018-03-21T05:49:40.683Z,33.75
2018-03-21T05:52:06.906Z,34.33
2018-03-21T05:54:32.984Z,30.12
2018-03-21T05:56:59.822Z,47.33
2018-03-21T05:59:25.946Z,38.58
2018-03-21T06:01:52.195Z,34.80
2018-03-21T06:04:19.051Z,23.55
2018-03-21T06:06:45.127Z,30.98
2018-03-21T06:09:13.781Z,39.88
2018-03-21T06:11:40.595Z,32.28
2018-03-21T06:14:06.692Z,33.90
2018-03-21T06:16:33.179Z,31.90
2018-03-21T06:18:59.425Z,37.30
2018-03-21T06:21:26.381Z,26.98
2018-03-21T06:23:53.730Z,29.87
2018-03-21T06:26:20.708Z,29.48
2018-03-21T06:28:48.226Z,26.15
2018-03-21T06:31:14.881Z,24.52
2018-03-21T06:33:42.150Z,24.65
2018-03-21T06:36:08.370Z,19.52
2018-03-21T06:38:34.976Z,24.85
2018-03-21T06:41:02.441Z,27.73
2018-03-21T06:43:28.573Z,25.25
2018-03-21T06:45:54.789Z,21.90
2018-03-21T06:48:20.976Z,17.08
2018-03-21T06:50:47.051Z,13.80
2018-03-21T06:53:13.749Z,17.00
2018-03-21T06:55:39.842Z,16.52
2018-03-21T06:58:06.629Z,12.48
2018-03-21T07:00:32.889Z,17.42
2018-03-21T07:02:59.166Z,16.00
2018-03-21T07:05:26.098Z,16.30
2018-03-21T07:07:52.805Z,18.98
2018-03-21T07:10:21.186Z,15.65
2018-03-21T07:12:49.196Z,14.63
2018-03-21T07:15:29.373Z,21.73
2018-03-21T07:17:55.886Z,15.77
2018-03-21T07:20:22.680Z,16.12
2018-03-21T07:22:48.856Z,19.50
2018-03-21T07:25:15.564Z,21.45
2018-03-21T07:27:41.764Z,17.42
2018-03-21T07:30:07.898Z,16.55
2018-03-21T07:32:34.359Z,14.18
2018-03-21T07:35:00.534Z,10.38
2018-03-21T07:37:26.763Z,11.75
2018-03-21T07:39:54.006Z,14.50
2018-03-21T07:42:21.569Z,14.70
2018-03-21T07:44:48.522Z,14.00
2018-03-21T07:47:15.470Z,12.52
2018-03-21T07:49:43.270Z,12.82
2018-03-21T07:52:10.379Z,11.35
2018-03-21T07:54:36.728Z,9.30
2018-03-21T07:57:03.792Z,10.18
2018-03-21T07:59:31.130Z,11.32
2018-03-21T08:01:58.248Z,9.60
2018-03-21T08:04:24.427Z,9.02
2018-03-21T08:06:51.358Z,14.85
2018-03-21T08:09:17.592Z,11.35
2018-03-21T08:11:44.776Z,14.15
2018-03-21T08:14:11.609Z,9.52
2018-03-21T08:16:38.082Z,16.77
2018-03-21T08:19:04.317Z,13.40
2018-03-21T08:21:30.845Z,11.25
2018-03-21T08:23:57.250Z,11.65
2018-03-21T08:26:23.456Z,7.85
2018-03-21T08:28:49.606Z,17.35
2018-03-21T08:31:17.076Z,11.95
2018-03-21T08:33:43.632Z,9.07
2018-03-21T08:36:10.581Z,10.05
2018-03-21T08:38:37.559Z,15.30
2018-03-21T08:41:04.529Z,13.00
2018-03-21T08:43:30.809Z,10.98
2018-03-21T08:45:57.236Z,12.77
2018-03-21T08:48:24.168Z,8.98
2018-03-21T08:50:50.357Z,11.48
2018-03-21T08:53:16.567Z,6.00
2018-03-21T08:55:42.836Z,13.57
2018-03-21T08:58:08.991Z,13.43
2018-03-21T09:00:35.189Z,15.82
2018-03-21T09:03:01.399Z,10.55
2018-03-21T09:05:29.463Z,11.25
2018-03-21T09:07:55.987Z,11.00
2018-03-21T09:10:22.272Z,14.48
2018-03-21T09:12:49.071Z,10.95
2018-03-21T09:15:15.467Z,17.80
2018-03-21T09:17:41.726Z,10.63
2018-03-21T09:20:07.867Z,13.35
2018-03-21T09:22:34.060Z,11.77
2018-03-21T09:25:00.718Z,8.65
2018-03-21T09:27:26.743Z,13.88
2018-03-21T09:29:52.945Z,13.93
2018-03-21T09:32:19.096Z,6.32
2018-03-21T09:34:46.018Z,10.43
2018-03-21T09:37:12.227Z,4.40
2018-03-21T09:39:38.400Z,4.47
2018-03-21T09:42:04.722Z,7.25
2018-03-21T09:44:30.814Z,8.25
2018-03-21T09:46:57.311Z,8.15
2018-03-21T09:49:24.315Z,13.40
2018-03-21T09:51:50.446Z,10.75
2018-03-21T09:54:16.674Z,5.65
2018-03-21T09:56:43.638Z,10.40
2018-03-21T09:59:09.662Z,10.45
2018-03-21T10:01:36.708Z,3.80
2018-03-21T10:04:02.936Z,8.47
2018-03-21T10:06:30.502Z,3.40
2018-03-21T10:08:56.816Z,5.28
2018-03-21T10:11:24.100Z,7.28
2018-03-21T10:13:50.237Z,6.05
2018-03-21T10:16:16.329Z,6.50
2018-03-21T10:18:45.235Z,3.23
2018-03-21T10:21:11.332Z,3.87
2018-03-21T10:23:38.175Z,9.10
2018-03-21T10:26:04.604Z,3.87
2018-03-21T10:28:30.740Z,4.80
2018-03-21T10:30:57.268Z,3.55
2018-03-21T10:33:24.266Z,3.30
2018-03-21T10:35:50.387Z,9.50
2018-03-21T10:38:17.505Z,9.80
2018-03-21T10:40:43.562Z,11.75
2018-03-21T10:43:10.360Z,4.53
2018-03-21T10:45:37.502Z,6.83
2018-03-21T10:48:03.633Z,5.10
2018-03-21T10:50:30.678Z,3.40
2018-03-21T10:52:56.832Z,5.70
2018-03-21T10:55:22.891Z,5.90
2018-03-21T10:57:49.637Z,2.90
2018-03-21T11:00:15.729Z,10.60
2018-03-21T11:02:48.783Z,2.90
2018-03-21T11:05:15.660Z,6.80
2018-03-21T11:07:41.912Z,4.27
2018-03-21T11:10:08.971Z,3.17
2018-03-21T11:12:35.051Z,8.63
2018-03-21T11:15:01.837Z,13.30
2018-03-21T11:17:29.953Z,11.80
2018-03-21T11:19:56.027Z,7.07
2018-03-21T11:22:22.100Z,3.70
2018-03-21T11:24:48.127Z,4.73
2018-03-21T11:27:15.117Z,6.73
2018-03-21T11:29:41.979Z,3.83
2018-03-21T11:32:08.126Z,6.97
2018-03-21T11:34:34.779Z,25.70
2018-03-21T11:37:00.857Z,3.97
2018-03-21T11:39:26.924Z,3.53
2018-03-21T11:41:53.031Z,3.77
2018-03-21T11:44:19.870Z,2.87
2018-03-21T11:46:46.730Z,8.97
2018-03-21T11:49:13.028Z,10.70
2018-03-21T11:51:39.249Z,4.97
2018-03-21T11:54:05.394Z,5.67
2018-03-21T11:56:31.545Z,9.20
2018-03-21T11:58:59.591Z,5.20
2018-03-21T12:01:26.167Z,6.00
2018-03-21T12:03:52.312Z,13.97
2018-03-21T12:06:18.438Z,6.20
2018-03-21T12:08:46.297Z,3.90
2018-03-21T12:11:12.536Z,3.83
2018-03-21T12:13:38.837Z,4.80
2018-03-21T12:16:05.495Z,3.90
2018-03-21T12:18:31.718Z,3.50
2018-03-21T12:20:57.794Z,9.90
2018-03-21T12:23:24.251Z,10.60
2018-03-21T12:25:51.139Z,9.20
2018-03-21T12:28:17.534Z,10.03
2018-03-21T12:30:43.753Z,3.73
2018-03-21T12:33:10.070Z,3.00
2018-03-21T12:35:36.236Z,3.70
2018-03-21T12:38:02.716Z,5.43
2018-03-21T12:40:28.883Z,4.60
2018-03-21T12:42:55.427Z,5.07
2018-03-21T12:45:22.257Z,4.40
2018-03-21T12:47:48.499Z,10.53
2018-03-21T12:50:14.636Z,3.53
2018-03-21T12:52:41.450Z,5.07
2018-03-21T12:55:07.683Z,7.00
2018-03-21T12:57:33.779Z,5.73
2018-03-21T13:00:00.256Z,5.07
2018-03-21T13:02:26.353Z,4.33
2018-03-21T13:04:52.499Z,5.70
2018-03-21T13:07:18.510Z,5.20
2018-03-21T13:09:44.611Z,5.13
2018-03-21T13:12:11.491Z,5.73
2018-03-21T13:14:38.020Z,3.60
2018-03-21T13:17:04.925Z,3.40
2018-03-21T13:19:32.481Z,7.17
2018-03-21T13:21:58.751Z,9.37
2018-03-21T13:24:25.675Z,5.33
2018-03-21T13:26:53.718Z,5.13
2018-03-21T13:29:19.913Z,3.27
2018-03-21T13:31:46.103Z,3.87
2018-03-21T13:34:12.841Z,6.00
2018-03-21T13:36:39.240Z,5.93
2018-03-21T13:39:06.441Z,3.77
2018-03-21T13:41:32.704Z,4.20
2018-03-21T13:43:59.155Z,3.93
2018-03-21T13:46:25.465Z,6.37
2018-03-21T13:48:51.783Z,3.60
2018-03-21T13:51:18.038Z,4.53
2018-03-21T13:53:45.010Z,5.30
2018-03-21T13:56:11.436Z,4.30
2018-03-21T13:58:37.987Z,5.70
2018-03-21T14:01:05.710Z,4.30
2018-03-21T14:03:32.263Z,7.87
2018-03-21T14:05:59.519Z,7.70
2018-03-21T14:08:26.035Z,4.90
2018-03-21T14:10:52.320Z,8.90
2018-03-21T14:13:18.478Z,5.93
2018-03-21T14:15:45.150Z,5.50
2018-03-21T14:18:11.798Z,5.13
2018-03-21T14:20:38.528Z,4.60
2018-03-21T14:23:04.809Z,5.80
2018-03-21T14:25:31.836Z,4.50
2018-03-21T14:27:58.097Z,6.23
2018-03-21T14:30:25.280Z,5.13
2018-03-21T14:32:52.155Z,4.40
2018-03-21T14:35:19.435Z,3.97
2018-03-21T14:37:45.961Z,4.90
2018-03-21T14:40:12.163Z,5.10
2018-03-21T14:42:39.661Z,5.67
2018-03-21T14:45:05.841Z,9.37
2018-03-21T14:47:32.827Z,9.60
2018-03-21T14:49:58.965Z,8.50
2018-03-21T14:52:25.002Z,8.67
2018-03-21T14:54:51.527Z,9.43
2018-03-21T14:57:19.208Z,7.57
2018-03-21T14:59:45.416Z,5.37
2018-03-21T15:02:11.747Z,7.63
2018-03-21T15:04:39.042Z,4.00
2018-03-21T15:07:05.212Z,6.40
2018-03-21T15:09:31.391Z,6.00
2018-03-21T15:11:58.070Z,4.10
2018-03-21T15:14:24.575Z,3.87
2018-03-21T15:16:50.942Z,8.53
2018-03-21T15:19:17.528Z,6.33
2018-03-21T15:21:43.718Z,7.10
2018-03-21T15:24:10.105Z,11.00
2018-03-21T15:26:36.773Z,7.63
2018-03-21T15:29:02.893Z,12.87
2018-03-21T15:31:29.203Z,5.17
2018-03-21T15:33:55.529Z,6.40
2018-03-21T15:36:22.598Z,5.83
2018-03-21T15:38:49.844Z,4.37
2018-03-21T15:41:18.155Z,17.60
2018-03-21T15:43:44.453Z,6.40
2018-03-21T15:46:10.606Z,6.60
2018-03-21T15:48:37.461Z,4.63
2018-03-21T15:51:04.502Z,4.90
2018-03-21T15:53:31.112Z,9.03
2018-03-21T15:55:57.463Z,4.93
2018-03-21T15:58:23.682Z,8.23
2018-03-21T16:00:51.032Z,4.43
2018-03-21T16:03:17.236Z,5.10
2018-03-21T16:05:43.484Z,4.83
2018-03-21T16:08:09.720Z,4.93
2018-03-21T16:10:35.828Z,7.40
2018-03-21T16:13:02.039Z,5.27
2018-03-21T16:15:28.316Z,4.83
2018-03-21T16:17:54.500Z,11.00
2018-03-21T16:20:20.574Z,11.83
2018-03-21T16:22:47.378Z,6.30
2018-03-21T16:25:14.196Z,7.77
2018-03-21T16:27:40.593Z,14.13
2018-03-21T16:30:07.094Z,10.50
2018-03-21T16:32:34.012Z,5.70
2018-03-21T16:35:00.581Z,7.70
2018-03-21T16:37:28.333Z,7.90
2018-03-21T16:39:54.459Z,5.40
2018-03-21T16:42:20.684Z,9.83
2018-03-21T16:44:46.758Z,19.80
2018-03-21T16:47:12.966Z,7.87
2018-03-21T16:49:39.575Z,9.10
2018-03-21T16:52:06.810Z,5.40
2018-03-21T16:54:33.965Z,6.63
2018-03-21T16:57:01.111Z,7.27
2018-03-21T16:59:27.289Z,9.70
2018-03-21T17:01:53.466Z,6.47
2018-03-21T17:04:19.613Z,10.70
2018-03-21T17:06:46.863Z,8.90
2018-03-21T17:09:13.999Z,6.20
2018-03-21T17:11:41.167Z,5.83
2018-03-21T17:14:07.482Z,8.03
2018-03-21T17:16:34.004Z,13.00
2018-03-21T17:19:00.582Z,11.50
2018-03-21T17:21:29.889Z,9.87
2018-03-21T17:23:56.893Z,12.80
2018-03-21T17:26:23.183Z,10.90
2018-03-21T17:28:49.730Z,9.57
2018-03-21T17:31:15.988Z,11.47
2018-03-21T17:33:43.618Z,11.13
2018-03-21T17:36:10.627Z,10.33
2018-03-21T17:38:36.774Z,10.00
2018-03-21T17:41:04.431Z,10.87
2018-03-21T17:43:30.653Z,16.80
2018-03-21T17:45:57.834Z,9.07
2018-03-21T17:48:24.035Z,10.40
2018-03-21T17:50:50.445Z,12.73
2018-03-21T17:53:18.242Z,7.87
2018-03-21T17:55:45.979Z,8.63
2018-03-21T17:58:13.042Z,12.53
2018-03-21T18:00:39.482Z,9.13
2018-03-21T18:03:05.585Z,11.03
2018-03-21T18:05:32.759Z,10.37
2018-03-21T18:08:00.642Z,10.03
2018-03-21T18:10:27.406Z,6.33
2018-03-21T18:12:53.667Z,8.70
2018-03-21T18:15:20.811Z,9.10
2018-03-21T18:17:47.905Z,10.27
2018-03-21T18:20:14.357Z,11.07
2018-03-21T18:22:40.785Z,9.57
2018-03-21T18:25:08.374Z,12.33
2018-03-21T18:27:35.272Z,9.20
2018-03-21T18:30:01.476Z,10.80
2018-03-21T18:32:28.023Z,9.20
2018-03-21T18:34:57.211Z,8.23
2018-03-21T18:37:23.370Z,10.97
2018-03-21T18:39:49.608Z,12.37
2018-03-21T18:42:15.716Z,8.27
2018-03-21T18:44:41.939Z,14.77
2018-03-21T18:47:11.264Z,10.70
2018-03-21T18:49:37.798Z,17.03
2018-03-21T18:52:04.012Z,17.23
2018-03-21T18:54:31.272Z,17.43
2018-03-21T18:56:59.895Z,17.40
2018-03-21T18:59:28.217Z,15.50
2018-03-21T19:01:54.314Z,16.83
2018-03-21T19:04:20.608Z,16.23
2018-03-21T19:06:46.769Z,17.13
2018-03-21T19:09:12.959Z,18.27
2018-03-21T19:11:39.840Z,17.27
2018-03-21T19:14:06.042Z,19.57
2018-03-21T19:16:33.313Z,20.37
2018-03-21T19:18:59.568Z,25.03
2018-03-21T19:21:27.152Z,26.67
2018-03-21T19:23:54.481Z,17.23
2018-03-21T19:26:22.587Z,61.73
2018-03-21T19:28:48.651Z,22.23
2018-03-21T19:31:14.829Z,20.23
2018-03-21T19:33:40.955Z,21.33
2018-03-21T19:36:07.066Z,21.30
2018-03-21T19:38:34.311Z,18.07
2018-03-21T19:41:00.445Z,19.60
2018-03-21T19:43:27.355Z,16.47
2018-03-21T19:46:00.496Z,14.80
2018-03-21T19:48:26.921Z,20.00
2018-03-21T19:50:53.574Z,15.33
2018-03-21T19:53:21.693Z,15.17
2018-03-21T19:55:47.775Z,17.57
2018-03-21T19:58:14.042Z,18.77
2018-03-21T20:00:41.120Z,15.83
2018-03-21T20:03:07.552Z,12.23
2018-03-21T20:05:34.358Z,16.07
2018-03-21T20:08:00.430Z,16.63
2018-03-21T20:10:26.589Z,15.03
2018-03-21T20:12:54.516Z,16.43
2018-03-21T20:15:21.186Z,13.37
2018-03-21T20:17:48.594Z,13.93
2018-03-21T20:20:14.796Z,19.40
2018-03-21T20:22:41.207Z,15.57
2018-03-21T20:25:08.076Z,22.77
2018-03-21T20:27:34.203Z,23.03
2018-03-21T20:30:00.407Z,14.93
2018-03-21T20:32:26.609Z,17.27
2018-03-21T20:34:52.726Z,18.00
2018-03-21T20:37:19.607Z,20.77
2018-03-21T20:39:46.755Z,18.10
2018-03-21T20:42:13.588Z,14.80
2018-03-21T20:44:40.258Z,18.00
2018-03-21T20:47:06.471Z,23.30
2018-03-21T20:49:32.588Z,23.83
2018-03-21T20:51:58.738Z,17.77
2018-03-21T20:54:25.904Z,23.83
2018-03-21T20:56:52.884Z,17.50
2018-03-21T20:59:19.317Z,19.62
2018-03-21T21:01:45.541Z,21.10
2018-03-21T21:04:12.294Z,20.62
2018-03-21T21:06:38.852Z,20.60
2018-03-21T21:09:06.057Z,20.40
2018-03-21T21:11:32.906Z,23.40
2018-03-21T21:13:59.483Z,24.13
2018-03-21T21:16:25.582Z,22.48
2018-03-21T21:18:52.267Z,22.33
2018-03-21T21:21:18.337Z,24.10
2018-03-21T21:23:44.559Z,27.65
2018-03-21T21:26:10.768Z,26.20
2018-03-21T21:28:37.803Z,22.90
2018-03-21T21:31:04.100Z,22.15
2018-03-21T21:33:32.145Z,23.75
2018-03-21T21:35:58.351Z,26.05
2018-03-21T21:38:24.661Z,24.12
2018-03-21T21:40:51.589Z,24.35
2018-03-21T21:43:17.814Z,53.00
2018-03-21T21:45:43.963Z,23.83
2018-03-21T21:48:10.948Z,24.30
2018-03-21T21:50:37.124Z,30.40
2018-03-21T21:53:03.348Z,21.63
2018-03-21T21:55:29.483Z,26.77
2018-03-21T21:57:55.730Z,33.17
2018-03-21T22:00:21.978Z,36.22
2018-03-21T22:02:49.346Z,37.28
2018-03-21T22:05:16.651Z,33.30
2018-03-21T22:07:42.858Z,22.62
2018-03-21T22:10:10.086Z,25.55
2018-03-21T22:12:36.197Z,21.85
2018-03-21T22:15:02.316Z,23.83
2018-03-21T22:17:28.465Z,23.48
2018-03-21T22:19:55.000Z,23.17
2018-03-21T22:22:21.625Z,27.92
2018-03-21T22:24:48.664Z,26.23
2018-03-21T22:27:14.778Z,26.52
2018-03-21T22:29:40.990Z,24.55
2018-03-21T22:32:08.256Z,25.88
2018-03-21T22:34:35.095Z,27.40
2018-03-21T22:37:01.319Z,21.95
2018-03-21T22:39:29.691Z,18.62
2018-03-21T22:41:55.940Z,23.95
2018-03-21T22:44:22.823Z,23.12
2018-03-21T22:46:48.903Z,24.35
2018-03-21T22:49:15.076Z,24.90
2018-03-21T22:51:41.298Z,25.98
2018-03-21T22:54:08.801Z,21.20
2018-03-21T22:56:34.894Z,25.15
2018-03-21T22:59:03.975Z,22.92
2018-03-21T23:01:30.063Z,25.48
2018-03-21T23:03:56.142Z,22.35
2018-03-21T23:06:22.232Z,20.48
2018-03-21T23:08:48.252Z,19.80
2018-03-21T23:11:14.303Z,22.48
2018-03-21T23:13:41.260Z,24.83
2018-03-21T23:16:07.425Z,26.30
2018-03-21T23:18:34.235Z,25.27
2018-03-21T23:21:01.041Z,28.20
2018-03-21T23:23:27.902Z,22.58
2018-03-21T23:25:53.974Z,24.80
2018-03-21T23:28:20.070Z,22.13
2018-03-21T23:30:46.166Z,25.73
2018-03-21T23:33:12.232Z,27.17
2018-03-21T23:35:38.376Z,25.25
2018-03-21T23:38:05.213Z,23.00
2018-03-21T23:40:31.391Z,25.55
2018-03-21T23:42:58.725Z,24.73
2018-03-21T23:45:24.793Z,24.30
2018-03-21T23:47:50.950Z,29.25
2018-03-21T23:50:17.052Z,23.73
2018-03-21T23:52:44.234Z,25.02
2018-03-21T23:55:10.261Z,25.77
2018-03-21T23:57:36.374Z,26.27
